Time;durP1;ratioP1;P1;durP2;ratioP2;P2;SDS_P1;SDS_P2;PMS_P1;PMS_P2;Temp;Humidity;BMP_temperature;BMP_pressure;BME280_temperature;BME280_humidity;BME280_pressure;Samples;Min_cycle;Max_cycle;Signal;HPM_P1;HPM_P2
2022/07/10 00:00:53;;;;;;;;;3.33;3.33;;;;;20.12;49.85;102186.53;5061440;28;45521;-74
2022/07/10 00:03:18;;;;;;;;;5.33;5.33;;;;;20.09;49.95;102185.09;5057537;28;46882;-74
2022/07/10 00:05:44;;;;;;;;;5.00;5.00;;;;;20.08;50.03;102187.97;5060796;28;45817;-74
2022/07/10 00:08:09;;;;;;;;;4.33;4.33;;;;;20.05;50.35;102183.81;5061129;28;45409;-74
2022/07/10 00:10:35;;;;;;;;;5.67;5.67;;;;;20.02;50.14;102185.06;5061255;28;45233;-74
2022/07/10 00:13:01;;;;;;;;;4.00;4.00;;;;;19.97;50.13;102187.50;5060926;28;45782;-74
2022/07/10 00:15:27;;;;;;;;;4.67;4.67;;;;;19.92;51.04;102187.25;5060740;28;46291;-74
2022/07/10 00:17:52;;;;;;;;;5.33;4.67;;;;;19.88;50.98;102181.47;5049681;28;45193;-74
2022/07/10 00:20:17;;;;;;;;;3.33;3.33;;;;;19.91;51.23;102186.44;5042860;28;45369;-74
2022/07/10 00:22:43;;;;;;;;;5.67;5.67;;;;;19.92;50.85;102185.41;5042748;28;46352;-74
2022/07/10 00:25:13;;;;;;;;;4.00;4.00;;;;;19.89;51.17;102188.50;5042541;28;46834;-74
2022/07/10 00:27:39;;;;;;;;;5.33;5.00;;;;;19.87;51.21;102197.84;5060733;28;45659;-73
2022/07/10 00:30:05;;;;;;;;;6.33;5.00;;;;;19.77;51.25;102187.41;5060881;28;45443;-74
2022/07/10 00:32:31;;;;;;;;;4.67;4.67;;;;;19.71;51.82;102197.16;5060386;28;45221;-74
2022/07/10 00:34:56;;;;;;;;;4.00;3.67;;;;;19.65;51.92;102187.16;5060574;28;45252;-74
2022/07/10 00:37:22;;;;;;;;;5.00;4.00;;;;;19.65;52.16;102201.47;5060455;28;45281;-74
2022/07/10 00:39:48;;;;;;;;;4.00;4.00;;;;;19.60;51.97;102201.22;5060876;28;45279;-74
2022/07/10 00:42:15;;;;;;;;;4.33;4.33;;;;;19.57;52.33;102200.81;5060629;28;45466;-73
2022/07/10 00:44:41;;;;;;;;;7.00;6.00;;;;;19.48;52.08;102190.19;5060208;28;45383;-73
2022/07/10 00:47:08;;;;;;;;;5.00;5.00;;;;;19.42;53.08;102204.44;5049619;28;45324;-74
2022/07/10 00:49:34;;;;;;;;;7.00;6.33;;;;;19.33;52.76;102194.88;5060025;28;45367;-73
2022/07/10 00:52:02;;;;;;;;;4.00;4.00;;;;;19.28;53.33;102193.59;5060447;28;45544;-74
2022/07/10 00:54:29;;;;;;;;;6.00;5.00;;;;;19.25;53.46;102191.28;5060122;28;45367;-73
2022/07/10 00:56:55;;;;;;;;;6.67;5.33;;;;;19.22;53.94;102180.91;5060487;28;45344;-74
2022/07/10 00:59:21;;;;;;;;;3.00;3.00;;;;;19.16;53.75;102181.72;5060384;28;45459;-73
2022/07/10 01:01:48;;;;;;;;;6.33;5.33;;;;;19.08;54.04;102174.59;5058170;28;46039;-74
2022/07/10 01:04:13;;;;;;;;;7.00;4.67;;;;;18.99;54.59;102181.13;5041818;28;47344;-74
2022/07/10 01:06:38;;;;;;;;;5.00;5.00;;;;;18.98;54.46;102182.16;5059963;28;45265;-74
2022/07/10 01:09:04;;;;;;;;;5.00;5.00;;;;;18.95;55.22;102179.84;5041769;28;47449;-74
2022/07/10 01:11:33;;;;;;;;;5.67;5.67;;;;;18.89;54.77;102170.69;5060040;28;45265;-73
2022/07/10 01:13:58;;;;;;;;;7.33;5.00;;;;;18.87;55.68;102170.06;5055536;28;48317;-74
2022/07/10 01:16:23;;;;;;;;;6.00;5.67;;;;;18.84;55.39;102167.75;5060185;28;45311;-73
2022/07/10 01:18:49;;;;;;;;;7.00;6.00;;;;;18.86;55.31;102174.59;5042253;28;45289;-73
2022/07/10 01:21:32;;;;;;;;;4.33;4.33;;;;;18.77;55.34;102168.53;5059965;28;45302;-74
2022/07/10 01:23:58;;;;;;;;;5.00;5.00;;;;;18.77;55.84;102170.41;5041400;28;47520;-73
2022/07/10 01:26:24;;;;;;;;;5.00;4.00;;;;;18.75;55.95;102175.13;5059896;28;45395;-74
2022/07/10 01:28:51;;;;;;;;;6.00;6.00;;;;;18.69;56.22;102171.38;5060052;28;45308;-73
2022/07/10 01:31:18;;;;;;;;;4.00;4.00;;;;;18.64;56.52;102171.94;5059981;28;45331;-74
2022/07/10 01:33:44;;;;;;;;;5.33;5.33;;;;;18.60;57.19;102165.28;5059671;28;45285;-74
2022/07/10 01:36:10;;;;;;;;;4.67;4.67;;;;;18.61;56.64;102174.19;5059401;28;45383;-73
2022/07/10 01:38:35;;;;;;;;;5.33;5.00;;;;;18.58;57.05;102177.28;5059853;28;45709;-74
2022/07/10 01:41:00;;;;;;;;;5.00;5.00;;;;;18.57;57.28;102180.97;5054540;28;46005;-74
2022/07/10 01:43:25;;;;;;;;;6.00;6.00;;;;;18.55;57.05;102175.78;5058990;28;49700;-73
2022/07/10 01:45:51;;;;;;;;;4.33;4.33;;;;;18.53;57.11;102167.09;5041384;28;45817;-74
2022/07/10 01:48:16;;;;;;;;;6.00;5.00;;;;;18.53;57.14;102175.16;5059663;28;45473;-74
2022/07/10 01:50:43;;;;;;;;;5.00;4.33;;;;;18.50;57.52;102178.25;5059588;28;45242;-74
2022/07/10 01:53:08;;;;;;;;;6.33;6.33;;;;;18.46;57.44;102172.41;5059195;28;46594;-74
2022/07/10 01:55:34;;;;;;;;;5.00;5.00;;;;;18.40;56.91;102170.47;5059547;28;45483;-74
2022/07/10 01:57:59;;;;;;;;;8.00;7.67;;;;;18.38;57.68;102169.84;5054178;28;45429;-74
2022/07/10 02:00:24;;;;;;;;;5.00;4.67;;;;;18.36;58.00;102178.13;5045970;28;45828;-74
2022/07/10 02:05:34;;;;;;;;;7.00;6.00;;;;;18.42;57.96;102187.28;5059094;28;45443;-75
2022/07/10 02:07:59;;;;;;;;;3.67;3.67;;;;;18.43;57.75;102194.31;5059109;28;45379;-74
2022/07/10 02:10:25;;;;;;;;;5.33;5.00;;;;;18.43;57.91;102180.84;5059073;28;45493;-74
2022/07/10 02:12:50;;;;;;;;;5.00;5.00;;;;;18.44;57.58;102192.47;5059267;28;45280;-74
2022/07/10 02:15:15;;;;;;;;;7.67;6.67;;;;;18.44;57.88;102185.22;5055979;28;48395;-74
2022/07/10 02:17:40;;;;;;;;;6.00;5.00;;;;;18.43;57.55;102191.63;5048297;28;45339;-74
2022/07/10 02:20:06;;;;;;;;;5.00;5.00;;;;;18.41;57.03;102181.03;5058785;28;50003;-74
2022/07/10 02:22:32;;;;;;;;;4.00;4.00;;;;;18.33;57.47;102189.25;5058795;28;46460;-74
2022/07/10 02:24:57;;;;;;;;;7.00;7.00;;;;;18.29;57.98;102178.03;5059063;28;45383;-74
2022/07/10 02:27:22;;;;;;;;;6.67;6.67;;;;;18.26;57.43;102175.72;5059268;28;45722;-74
2022/07/10 02:29:47;;;;;;;;;4.33;4.33;;;;;18.19;58.24;102182.88;5059177;28;45371;-74
2022/07/10 02:32:13;;;;;;;;;5.00;5.00;;;;;18.18;58.42;102181.22;5051410;28;48645;-74
2022/07/10 02:34:38;;;;;;;;;7.67;7.67;;;;;18.15;58.54;102173.53;5040447;28;50255;-74
2022/07/10 02:37:04;;;;;;;;;6.00;5.67;;;;;18.17;58.52;102177.69;5041083;28;45398;-74
2022/07/10 02:39:29;;;;;;;;;9.00;6.00;;;;;18.15;58.22;102177.06;5058567;28;45520;-73
2022/07/10 02:41:54;;;;;;;;;6.00;6.00;;;;;18.10;58.55;102170.53;5047002;28;47072;-74
2022/07/10 02:44:20;;;;;;;;;5.00;5.00;;;;;18.08;58.28;102169.91;5058698;28;45232;-74
2022/07/10 02:46:45;;;;;;;;;6.00;5.00;;;;;18.07;57.86;102173.63;5059080;28;45354;-74
2022/07/10 02:49:11;;;;;;;;;5.00;5.00;;;;;18.00;58.65;102171.69;5058471;28;45558;-74
2022/07/10 02:51:36;;;;;;;;;4.33;4.33;;;;;17.99;59.34;102170.00;5058508;28;46150;-74
2022/07/10 02:54:02;;;;;;;;;4.00;4.00;;;;;17.97;58.87;102169.38;5049104;28;45356;-74
2022/07/10 02:56:27;;;;;;;;;6.67;5.00;;;;;18.01;58.98;102162.59;5062387;28;45166;-74
2022/07/10 02:58:53;;;;;;;;;4.00;4.00;;;;;17.95;58.82;102151.75;5040785;28;45958;-74
2022/07/10 03:01:18;;;;;;;;;6.33;5.00;;;;;17.98;59.16;102156.75;5057628;28;45779;-74
2022/07/10 03:03:44;;;;;;;;;5.00;5.00;;;;;17.95;58.32;102160.66;5062248;28;45336;-74
2022/07/10 03:06:09;;;;;;;;;6.00;6.00;;;;;17.92;59.11;102161.03;5062066;28;45248;-74
2022/07/10 03:08:35;;;;;;;;;7.33;7.33;;;;;17.85;58.66;102160.97;5061801;28;45498;-74
2022/07/10 03:11:00;;;;;;;;;6.67;5.33;;;;;17.77;59.46;102156.53;5043728;28;46019;-74
2022/07/10 03:13:25;;;;;;;;;6.67;6.33;;;;;17.76;59.19;102162.94;5061872;28;45379;-74
2022/07/10 03:15:54;;;;;;;;;6.00;6.00;;;;;17.74;59.33;102162.28;5046123;28;45575;-74
2022/07/10 03:18:19;;;;;;;;;6.33;5.00;;;;;17.71;59.22;102173.41;5066463;28;45479;-74
2022/07/10 03:20:44;;;;;;;;;7.00;7.00;;;;;17.68;59.52;102163.03;5061479;28;51703;-74
2022/07/10 03:23:09;;;;;;;;;5.67;5.00;;;;;17.66;59.40;102170.47;5049588;28;50789;-74
2022/07/10 03:25:35;;;;;;;;;5.00;5.00;;;;;17.64;60.17;102161.72;5061761;28;45203;-74
2022/07/10 03:28:00;;;;;;;;;5.00;4.00;;;;;17.64;60.25;102156.34;5061799;28;46394;-74
2022/07/10 03:30:25;;;;;;;;;9.33;6.67;;;;;17.63;59.61;102152.81;5061575;28;50391;-74
2022/07/10 03:32:50;;;;;;;;;7.33;6.67;;;;;17.57;60.22;102153.56;5047402;28;45328;-74
2022/07/10 03:35:16;;;;;;;;;4.33;4.00;;;;;17.57;59.76;102155.44;5061765;28;45274;-74
2022/07/10 03:37:42;;;;;;;;;4.67;4.67;;;;;17.54;60.54;102153.97;5061416;28;45502;-74
2022/07/10 03:40:08;;;;;;;;;5.00;5.00;;;;;17.49;60.14;102153.69;5049231;28;47052;-74
2022/07/10 03:42:34;;;;;;;;;4.00;4.00;;;;;17.47;60.08;102143.13;5061529;28;45445;-74
2022/07/10 03:44:59;;;;;;;;;5.33;5.33;;;;;17.49;60.08;102151.00;5061628;28;45432;-74
2022/07/10 03:47:25;;;;;;;;;5.00;5.00;;;;;17.42;60.37;102146.34;5043289;28;45835;-74
2022/07/10 03:49:50;;;;;;;;;4.33;4.33;;;;;17.39;60.36;102151.28;5061133;28;46418;-74
2022/07/10 03:52:16;;;;;;;;;6.00;6.00;;;;;17.41;60.15;102154.59;5061416;28;45309;-74
2022/07/10 03:54:41;;;;;;;;;7.00;6.67;;;;;17.35;60.64;102155.34;5043096;28;45342;-74
2022/07/10 03:59:51;;;;;;;;;5.00;5.00;;;;;17.34;60.78;102162.59;5058630;28;45335;-74
2022/07/10 04:02:16;;;;;;;;;4.00;4.00;;;;;17.35;61.06;102161.56;5061282;28;45320;-74
2022/07/10 04:04:41;;;;;;;;;6.00;6.00;;;;;17.36;60.75;102163.22;5060682;28;45311;-74
2022/07/10 04:07:07;;;;;;;;;5.67;5.67;;;;;17.33;61.01;102157.41;5061132;28;45571;-74
2022/07/10 04:09:32;;;;;;;;;6.00;5.67;;;;;17.31;61.24;102159.44;5039321;28;47300;-74
2022/07/10 04:11:57;;;;;;;;;5.67;5.67;;;;;17.28;61.69;102158.78;5040835;28;45339;-74
2022/07/10 04:14:23;;;;;;;;;6.67;5.33;;;;;17.31;61.72;102162.97;5041274;28;45453;-74
2022/07/10 04:16:48;;;;;;;;;6.33;6.00;;;;;17.31;61.60;102162.97;5040699;28;45376;-74
2022/07/10 04:19:13;;;;;;;;;7.00;7.00;;;;;17.30;61.38;102155.91;5040881;28;47753;-74
2022/07/10 04:21:39;;;;;;;;;5.00;5.00;;;;;17.34;61.36;102161.75;5039430;28;45268;-74
2022/07/10 04:24:04;;;;;;;;;5.67;5.67;;;;;17.31;61.49;102162.09;5053012;28;45394;-74
2022/07/10 04:26:30;;;;;;;;;6.33;5.67;;;;;17.31;61.35;102156.75;5040799;28;45605;-74
2022/07/10 04:28:55;;;;;;;;;5.33;5.33;;;;;17.31;61.68;102159.44;5026531;28;46354;-74
2022/07/10 04:31:21;;;;;;;;;4.67;4.67;;;;;17.31;61.76;102167.47;5040985;28;45216;-74
2022/07/10 04:33:46;;;;;;;;;6.67;5.67;;;;;17.31;61.66;102165.63;5040726;28;45418;-74
2022/07/10 04:36:11;;;;;;;;;5.00;5.00;;;;;17.28;61.35;102172.22;5040273;28;45276;-74
2022/07/10 04:38:37;;;;;;;;;5.00;5.00;;;;;17.26;62.20;102163.50;5046362;28;48051;-74
2022/07/10 04:41:02;;;;;;;;;6.00;5.00;;;;;17.28;61.47;102166.00;5040591;28;45236;-74
2022/07/10 04:43:30;;;;;;;;;5.33;5.33;;;;;17.25;61.55;102169.06;5035901;28;45253;-74
2022/07/10 04:45:55;;;;;;;;;7.00;6.67;;;;;17.21;61.79;102176.63;5036423;28;46198;-74
2022/07/10 04:48:21;;;;;;;;;7.00;6.67;;;;;17.19;61.68;102177.84;5040158;28;46373;-74
2022/07/10 04:50:46;;;;;;;;;7.33;7.33;;;;;17.14;62.40;102165.81;5048262;28;45372;-74
2022/07/10 04:53:12;;;;;;;;;6.00;6.00;;;;;17.16;61.92;102166.44;5040342;28;45367;-74
2022/07/10 04:55:37;;;;;;;;;7.00;7.00;;;;;17.13;62.24;102169.53;5040170;28;45361;-74
2022/07/10 04:58:02;;;;;;;;;6.00;6.00;;;;;17.15;62.42;102166.66;5040137;28;45303;-75
2022/07/10 05:00:28;;;;;;;;;9.67;8.33;;;;;17.20;62.24;102171.44;5044067;28;45294;-74
2022/07/10 05:02:53;;;;;;;;;6.00;6.00;;;;;17.19;62.44;102173.31;5040406;28;45352;-74
2022/07/10 05:05:18;;;;;;;;;7.33;6.00;;;;;17.20;62.71;102169.59;5038660;28;45877;-74
2022/07/10 05:07:44;;;;;;;;;7.00;7.00;;;;;17.21;62.16;102171.28;5038631;28;47177;-74
2022/07/10 05:10:09;;;;;;;;;8.00;8.00;;;;;17.21;62.77;102173.13;5049006;28;45268;-74
2022/07/10 05:12:35;;;;;;;;;6.67;5.33;;;;;17.26;61.99;102178.78;5060300;28;45471;-74
2022/07/10 05:15:00;;;;;;;;;8.00;8.00;;;;;17.22;62.42;102181.03;5041996;28;46016;-74
2022/07/10 05:17:29;;;;;;;;;5.33;5.33;;;;;17.22;61.88;102175.66;5066092;28;46569;-74
2022/07/10 05:19:56;;;;;;;;;5.33;5.33;;;;;17.22;62.22;102177.50;5055159;28;45913;-74
2022/07/10 05:22:22;;;;;;;;;6.67;6.00;;;;;17.24;62.33;102178.97;5038648;28;45373;-74
2022/07/10 05:24:48;;;;;;;;;7.00;6.00;;;;;17.24;62.48;102173.59;5046968;28;45952;-74
2022/07/10 05:27:13;;;;;;;;;7.00;7.00;;;;;17.22;62.28;102175.66;5059742;28;45936;-74
2022/07/10 05:29:38;;;;;;;;;8.67;8.33;;;;;17.20;62.27;102172.28;5059998;28;45426;-74
2022/07/10 05:32:04;;;;;;;;;5.00;5.00;;;;;17.21;62.51;102184.69;5051254;28;45293;-74
2022/07/10 05:34:29;;;;;;;;;6.00;6.00;;;;;17.25;62.24;102191.41;5059473;28;45237;-74
2022/07/10 05:36:54;;;;;;;;;6.00;6.00;;;;;17.23;62.65;102189.88;5059714;28;45584;-74
2022/07/10 05:39:20;;;;;;;;;7.67;7.33;;;;;17.19;62.25;102177.84;5059654;28;45271;-74
2022/07/10 05:41:45;;;;;;;;;5.33;5.33;;;;;17.18;62.54;102181.56;5041756;28;45237;-74
2022/07/10 05:44:10;;;;;;;;;6.00;5.67;;;;;17.20;62.86;102185.72;5059414;28;45596;-74
2022/07/10 05:46:36;;;;;;;;;6.67;6.00;;;;;17.25;62.97;102187.88;5045740;28;45300;-74
2022/07/10 05:49:01;;;;;;;;;6.00;5.00;;;;;17.27;62.58;102181.28;5050101;28;45329;-74
2022/07/10 05:51:26;;;;;;;;;5.00;5.00;;;;;17.32;62.54;102180.75;5059575;28;45453;-74
2022/07/10 05:53:52;;;;;;;;;8.00;7.00;;;;;17.36;62.70;102171.28;5041432;28;45812;-74
2022/07/10 05:56:17;;;;;;;;;9.00;7.67;;;;;17.43;62.86;102179.44;5041189;28;47092;-74
2022/07/10 05:58:43;;;;;;;;;6.00;6.00;;;;;17.48;62.06;102179.72;5059698;28;45209;-73
2022/07/10 06:01:08;;;;;;;;;7.00;7.00;;;;;17.51;62.28;102186.59;5052257;28;45265;-74
2022/07/10 06:03:35;;;;;;;;;6.00;5.00;;;;;17.50;62.23;102188.44;5059406;28;45481;-74
2022/07/10 06:06:00;;;;;;;;;6.33;6.33;;;;;17.52;62.51;102189.09;5059140;28;46181;-74
2022/07/10 06:08:25;;;;;;;;;7.00;7.00;;;;;17.54;62.61;102184.34;5040978;28;45274;-75
2022/07/10 06:10:51;;;;;;;;;5.00;5.00;;;;;17.60;62.35;102184.66;5059307;28;45376;-74
2022/07/10 06:13:16;;;;;;;;;6.00;6.00;;;;;17.65;62.64;102182.22;5059073;28;45462;-74
2022/07/10 06:15:41;;;;;;;;;6.00;5.67;;;;;17.71;62.10;102186.84;5060092;28;46262;-74
2022/07/10 06:18:07;;;;;;;;;6.67;6.67;;;;;17.78;62.33;102190.44;5066098;28;45483;-74
2022/07/10 06:20:32;;;;;;;;;5.00;5.00;;;;;17.87;62.89;102191.19;5056095;28;45322;-74
2022/07/10 06:22:58;;;;;;;;;5.67;5.67;;;;;17.94;61.67;102190.44;5059134;28;45392;-74
2022/07/10 06:25:23;;;;;;;;;9.00;7.00;;;;;17.95;61.39;102182.19;5040665;28;52015;-74
2022/07/10 06:27:49;;;;;;;;;7.33;6.00;;;;;18.05;61.09;102196.16;5059151;28;45323;-74
2022/07/10 06:30:15;;;;;;;;;5.00;4.67;;;;;18.07;61.01;102187.91;5062894;28;45533;-74
2022/07/10 06:32:40;;;;;;;;;7.00;7.00;;;;;18.12;61.05;102192.75;5062590;28;45281;-74
2022/07/10 06:35:07;;;;;;;;;7.00;7.00;;;;;18.17;60.94;102187.66;5062470;28;45806;-74
2022/07/10 06:37:33;;;;;;;;;6.33;6.33;;;;;18.25;61.03;102192.03;5042557;28;45968;-74
2022/07/10 06:39:58;;;;;;;;;7.00;6.00;;;;;18.30;60.24;102192.31;5062774;28;45240;-74
2022/07/10 06:42:24;;;;;;;;;6.67;6.67;;;;;18.38;60.86;102194.06;5054841;28;46015;-74
2022/07/10 06:44:50;;;;;;;;;6.00;5.67;;;;;18.41;60.65;102188.31;5044230;28;48364;-74
2022/07/10 06:50:07;;;;;;;;;8.33;8.33;;;;;18.52;59.87;102186.94;5062411;28;45455;-74
2022/07/10 06:52:33;;;;;;;;;6.67;6.67;;;;;18.58;59.75;102186.19;5062217;28;45577;-74
2022/07/10 06:54:59;;;;;;;;;6.67;6.00;;;;;18.61;60.42;102179.56;5062073;28;45348;-75
2022/07/10 06:57:25;;;;;;;;;6.00;5.33;;;;;18.64;59.46;102173.78;5062420;28;45284;-74
2022/07/10 06:59:51;;;;;;;;;5.33;4.33;;;;;18.74;58.82;102184.25;5057563;28;45478;-74
2022/07/10 07:02:17;;;;;;;;;4.00;4.00;;;;;18.80;59.05;102170.00;5062310;28;45286;-74
2022/07/10 07:04:44;;;;;;;;;5.00;5.00;;;;;18.88;58.48;102166.31;5043462;28;46992;-74
2022/07/10 07:07:10;;;;;;;;;3.67;3.67;;;;;18.99;58.23;102181.13;5062329;28;45359;-74
2022/07/10 07:09:35;;;;;;;;;4.00;4.00;;;;;19.07;57.35;102178.31;5061916;28;45166;-73
2022/07/10 07:12:00;;;;;;;;;5.33;5.33;;;;;19.11;57.13;102192.22;5061788;28;45219;-75
2022/07/10 07:14:26;;;;;;;;;4.00;4.00;;;;;19.17;56.63;102181.50;5062076;28;45342;-75
2022/07/10 07:17:00;;;;;;;;;6.00;4.00;;;;;19.24;56.51;102181.53;5069079;28;45222;-76
2022/07/10 07:24:55;;;;;;;;;4.00;4.00;;;;;19.37;56.05;102178.13;5061712;28;45268;-76
2022/07/10 07:27:20;;;;;;;;;5.00;5.00;;;;;19.47;56.08;102177.75;5061761;28;45357;-75
2022/07/10 07:29:45;;;;;;;;;6.00;5.00;;;;;19.54;55.64;102173.22;5062397;28;45290;-76
2022/07/10 07:32:11;;;;;;;;;3.33;3.33;;;;;19.62;55.03;102179.47;5061782;28;45436;-76
2022/07/10 07:34:37;;;;;;;;;6.00;4.00;;;;;19.67;55.14;102169.72;5061573;28;45269;-76
2022/07/10 07:37:02;;;;;;;;;7.00;5.00;;;;;19.75;54.95;102170.63;5043608;28;45745;-74
2022/07/10 07:39:28;;;;;;;;;3.33;3.33;;;;;19.84;54.69;102171.28;5057475;28;45387;-74
2022/07/10 07:41:53;;;;;;;;;4.00;3.67;;;;;19.89;54.16;102161.53;5049215;28;46111;-74
2022/07/10 07:44:18;;;;;;;;;4.67;3.33;;;;;19.99;54.01;102171.94;5061378;28;46413;-74
2022/07/10 07:46:44;;;;;;;;;3.00;3.00;;;;;20.06;53.76;102164.72;5061948;28;45626;-74
2022/07/10 07:49:10;;;;;;;;;4.33;4.33;;;;;20.13;53.43;102162.03;5061301;28;45443;-75
2022/07/10 07:51:35;;;;;;;;;5.00;3.00;;;;;20.19;53.23;102152.28;5059152;28;46637;-74
2022/07/10 07:54:00;;;;;;;;;6.00;6.00;;;;;20.28;53.14;102161.88;5061208;28;46284;-74
2022/07/10 07:56:26;;;;;;;;;4.00;3.67;;;;;20.36;53.07;102154.59;5061302;28;45313;-74
2022/07/10 07:58:51;;;;;;;;;3.33;3.33;;;;;20.36;52.12;102151.91;5061642;28;45371;-74
2022/07/10 08:01:19;;;;;;;;;4.67;3.00;;;;;20.35;52.07;102151.06;5060892;28;51127;-74
2022/07/10 08:03:44;;;;;;;;;3.00;3.00;;;;;20.41;52.34;102149.44;5061075;28;46491;-74
2022/07/10 08:06:10;;;;;;;;;4.00;4.00;;;;;20.49;52.34;102153.78;5061143;28;45327;-74
2022/07/10 08:08:36;;;;;;;;;3.67;3.67;;;;;20.57;52.11;102150.88;5039578;28;45408;-74
2022/07/10 08:11:01;;;;;;;;;3.00;3.00;;;;;20.61;51.65;102148.59;5052461;28;45347;-74
2022/07/10 08:13:26;;;;;;;;;4.00;4.00;;;;;20.71;51.32;102156.28;5061054;28;46383;-74
2022/07/10 08:15:52;;;;;;;;;3.67;3.67;;;;;20.68;51.04;102146.72;5051208;28;45293;-74
2022/07/10 08:18:17;;;;;;;;;4.00;4.00;;;;;20.72;50.90;102158.78;5066111;28;45328;-75
2022/07/10 08:20:42;;;;;;;;;4.67;4.67;;;;;20.78;50.33;102159.81;5060563;28;45398;-74
2022/07/10 08:23:08;;;;;;;;;5.00;4.00;;;;;20.83;50.44;102148.38;5039404;28;46949;-73
2022/07/10 08:25:35;;;;;;;;;7.00;7.00;;;;;20.88;50.11;102159.38;5055772;28;45260;-75
2022/07/10 08:28:05;;;;;;;;;5.67;5.67;;;;;20.94;49.85;102155.88;5061246;28;45347;-74
2022/07/10 08:30:31;;;;;;;;;4.33;4.33;;;;;21.01;49.98;102156.69;5046879;28;45480;-74
2022/07/10 08:32:56;;;;;;;;;5.00;5.00;;;;;21.06;49.76;102151.50;5060539;28;45367;-74
2022/07/10 08:35:22;;;;;;;;;5.00;5.00;;;;;21.09;49.50;102139.44;5060052;28;45335;-74
2022/07/10 08:37:47;;;;;;;;;3.00;3.00;;;;;21.18;49.43;102153.56;5060605;28;45402;-74
2022/07/10 08:40:14;;;;;;;;;3.33;3.33;;;;;21.27;49.03;102156.84;5049109;28;46322;-74
2022/07/10 08:42:41;;;;;;;;;5.00;5.00;;;;;21.33;49.17;102153.31;5060526;28;45389;-74
2022/07/10 08:45:07;;;;;;;;;5.00;4.00;;;;;21.38;48.23;102147.25;5047186;28;45341;-74
2022/07/10 08:47:38;;;;;;;;;3.00;3.00;;;;;21.46;48.69;102155.13;5042513;28;45337;-74
2022/07/10 08:50:04;;;;;;;;;5.33;5.00;;;;;21.52;48.05;102142.66;5042147;28;46650;-74
2022/07/10 08:52:56;;;;;;;;;4.00;4.00;;;;;21.54;48.88;102145.94;5059197;28;46792;-73
2022/07/10 08:55:26;;;;;;;;;4.00;4.00;;;;;21.66;47.94;102144.25;5042314;28;45254;-74
2022/07/10 08:57:53;;;;;;;;;5.00;4.00;;;;;21.74;48.62;102131.50;5053951;28;45398;-75
2022/07/10 09:00:18;;;;;;;;;6.00;5.33;;;;;21.83;48.09;102127.53;5045793;28;46259;-75
2022/07/10 09:02:44;;;;;;;;;3.33;3.33;;;;;21.92;47.68;102122.72;5042141;28;48268;-74
2022/07/10 09:05:09;;;;;;;;;3.00;3.00;;;;;22.00;47.50;102132.44;5059958;28;45273;-74
2022/07/10 09:07:41;;;;;;;;;3.67;3.67;;;;;22.02;47.37;102122.22;5060545;28;45212;-74
2022/07/10 09:10:08;;;;;;;;;3.67;3.67;;;;;22.11;47.16;102128.19;5052922;28;46535;-74
2022/07/10 09:12:56;;;;;;;;;4.00;4.00;;;;;22.17;46.60;102122.75;5030033;28;45454;-74
2022/07/10 09:15:27;;;;;;;;;4.00;2.67;;;;;22.26;46.52;102125.19;5038906;28;45301;-73
2022/07/10 09:17:59;;;;;;;;;2.67;2.00;;;;;22.36;45.85;102122.00;5047147;28;45339;-72
2022/07/10 09:20:46;;;;;;;;;5.00;5.00;;;;;22.39;45.23;102113.44;5039502;28;45340;-75
2022/07/10 09:23:21;;;;;;;;;4.67;4.67;;;;;22.46;45.64;102114.19;5038417;28;46890;-74
2022/07/10 09:25:48;;;;;;;;;5.00;5.00;;;;;22.51;45.77;102111.66;5038321;28;45394;-76
2022/07/10 09:28:17;;;;;;;;;3.00;3.00;;;;;22.59;45.13;102104.34;5038880;28;45519;-75
2022/07/10 09:30:42;;;;;;;;;2.00;2.00;;;;;22.68;45.23;102109.25;5039725;28;45257;-75
2022/07/10 09:33:15;;;;;;;;;8.00;5.00;;;;;22.73;44.94;102095.03;5036484;28;47145;-75
2022/07/10 09:36:08;;;;;;;;;4.00;4.00;;;;;22.81;44.80;102102.84;5032110;28;45307;-75
2022/07/10 09:38:39;;;;;;;;;3.00;3.00;;;;;22.89;43.83;102098.19;5048092;28;45415;-75
2022/07/10 09:41:37;;;;;;;;;5.00;4.00;;;;;22.93;43.87;102085.88;5035586;28;45416;-76
2022/07/10 09:44:04;;;;;;;;;5.00;3.00;;;;;22.98;44.03;102085.19;5005655;28;45522;-75
2022/07/10 09:46:34;;;;;;;;;3.33;3.33;;;;;23.07;43.44;102097.38;5033985;28;45199;-75
2022/07/10 09:49:02;;;;;;;;;3.67;3.00;;;;;23.17;43.79;102096.88;5031465;28;45364;-75
2022/07/10 09:51:31;;;;;;;;;4.67;4.67;;;;;23.25;43.53;102080.28;5038984;28;45957;-75
2022/07/10 09:54:00;;;;;;;;;3.00;3.00;;;;;23.36;43.87;102094.13;5038007;28;48064;-75
2022/07/10 09:56:27;;;;;;;;;3.00;3.00;;;;;23.47;43.09;102087.13;5039139;28;45375;-75
2022/07/10 09:58:59;;;;;;;;;4.00;4.00;;;;;23.54;42.27;102085.16;5039631;28;45386;-75
2022/07/10 10:01:26;;;;;;;;;3.00;2.00;;;;;23.58;42.83;102084.47;5023292;28;45471;-75
2022/07/10 10:03:52;;;;;;;;;2.33;2.00;;;;;23.66;42.57;102082.50;5022296;28;48331;-75
2022/07/10 10:06:19;;;;;;;;;2.33;2.33;;;;;23.81;42.80;102079.34;5019287;28;45414;-75
2022/07/10 10:08:49;;;;;;;;;4.00;4.00;;;;;23.95;42.34;102080.81;5025571;28;45323;-74
2022/07/10 10:11:20;;;;;;;;;3.00;3.00;;;;;24.07;41.19;102086.25;5047520;28;46304;-75
2022/07/10 10:13:46;;;;;;;;;2.67;2.67;;;;;24.11;41.52;102081.19;5033336;28;45704;-75
2022/07/10 10:16:12;;;;;;;;;2.67;2.67;;;;;24.23;41.48;102083.97;5036028;28;45315;-74
2022/07/10 10:20:36;;;;;;;;;3.00;3.00;;;;;24.31;41.65;102083.63;5041197;28;45150;-75
2022/07/10 10:21:28;;;;;;;;;2.33;2.33;;;;;24.42;42.17;102084.69;5039159;28;45680;-75
2022/07/10 10:23:58;;;;;;;;;2.67;2.67;;;;;24.57;41.75;102080.69;5038787;28;46572;-75
2022/07/10 10:26:24;;;;;;;;;2.67;1.67;;;;;24.71;40.79;102073.94;5031428;28;45329;-75
2022/07/10 10:28:54;;;;;;;;;3.00;3.00;;;;;24.87;41.32;102073.44;5019191;28;45344;-75
2022/07/10 10:31:20;;;;;;;;;2.00;2.00;;;;;25.00;41.13;102067.78;5026049;28;45229;-75
2022/07/10 10:33:47;;;;;;;;;1.67;1.67;;;;;25.19;40.38;102062.97;5039432;28;46285;-75
2022/07/10 10:36:33;;;;;;;;;3.33;3.33;;;;;25.33;40.73;102066.25;5024704;28;45232;-76
2022/07/10 10:39:01;;;;;;;;;1.67;1.67;;;;;25.55;40.46;102062.84;5037763;28;45594;-74
2022/07/10 10:41:29;;;;;;;;;3.00;3.00;;;;;25.69;39.81;102063.41;5024864;28;45525;-73
2022/07/10 10:44:17;;;;;;;;;1.33;1.33;;;;;25.84;39.47;102065.56;5038657;28;45469;-74
2022/07/10 10:47:05;;;;;;;;;3.00;3.00;;;;;25.91;39.35;102053.66;5026707;28;45582;-72
2022/07/10 10:49:56;;;;;;;;;2.00;2.00;;;;;26.05;39.21;102057.72;5049474;28;45363;-74
2022/07/10 10:52:24;;;;;;;;;3.33;3.33;;;;;26.20;38.55;102050.88;5030106;28;45368;-75
2022/07/10 10:55:03;;;;;;;;;3.00;3.00;;;;;26.29;38.96;102060.31;5038403;28;46354;-75
2022/07/10 10:57:32;;;;;;;;;2.00;2.00;;;;;26.49;39.03;102044.50;5036683;28;45320;-75
2022/07/10 10:59:59;;;;;;;;;3.33;3.00;;;;;26.66;39.29;102041.75;5039102;28;45473;-75
2022/07/10 11:02:26;;;;;;;;;4.00;4.00;;;;;26.83;38.73;102034.31;5037197;28;46211;-74
2022/07/10 11:05:18;;;;;;;;;2.67;2.33;;;;;26.95;37.58;102038.81;5038393;28;46176;-75
2022/07/10 11:08:01;;;;;;;;;4.00;2.00;;;;;27.00;38.24;102025.28;5024198;28;45225;-75
2022/07/10 11:10:33;;;;;;;;;2.00;2.00;;;;;27.12;38.35;102029.75;5048268;28;45319;-75
2022/07/10 11:13:07;;;;;;;;;3.67;3.67;;;;;27.23;37.12;102024.16;5029968;28;46293;-75
2022/07/10 11:15:36;;;;;;;;;2.00;2.00;;;;;27.35;36.89;102018.56;5059465;28;45480;-75
2022/07/10 11:18:11;;;;;;;;;1.67;1.67;;;;;27.41;37.13;102013.16;5050872;28;45352;-75
2022/07/10 11:20:44;;;;;;;;;2.67;2.00;;;;;27.43;36.77;102019.16;5041383;28;45526;-74
2022/07/10 11:23:28;;;;;;;;;7.67;7.67;;;;;27.54;36.79;102014.63;5046329;28;46213;-75
2022/07/10 11:26:10;;;;;;;;;2.00;1.00;;;;;27.60;35.63;102011.66;5045211;28;45446;-74
2022/07/10 11:28:44;;;;;;;;;2.00;2.00;;;;;27.63;36.43;102006.78;5062022;28;45264;-74
2022/07/10 11:31:09;;;;;;;;;7.00;7.00;;;;;27.72;35.98;102003.34;5048184;28;45488;-75
2022/07/10 11:33:48;;;;;;;;;10.67;10.00;;;;;27.88;36.56;101999.91;5050353;28;45490;-75
2022/07/10 11:36:15;;;;;;;;;4.67;4.67;;;;;28.01;36.53;102004.91;5055572;28;46355;-75
2022/07/10 11:38:42;;;;;;;;;6.33;6.33;;;;;28.07;35.80;101990.22;5041500;28;45411;-75